sensor_id;sensor_type;location;lat;lon;timestamp;pressure;altitude;pressure_sealevel;temperature;humidity
54554;BME280;40450;55.848;-3.572;2023-07-31T00:01:26;97979.63;;;17.14;77.75
54554;BME280;40450;55.848;-3.572;2023-07-31T00:03:57;97976.32;;;18.18;76.19
54554;BME280;40450;55.848;-3.572;2023-07-31T00:06:27;97973.88;;;18.98;74.15
54554;BME280;40450;55.848;-3.572;2023-07-31T00:08:57;97973.34;;;19.42;73.01
54554;BME280;40450;55.848;-3.572;2023-07-31T00:11:28;97969.18;;;19.95;71.19
54554;BME280;40450;55.848;-3.572;2023-07-31T00:13:59;97968.68;;;19.80;68.50
54554;BME280;40450;55.848;-3.572;2023-07-31T00:16:28;97965.75;;;20.04;71.27
54554;BME280;40450;55.848;-3.572;2023-07-31T00:18:59;97965.12;;;20.62;69.72
54554;BME280;40450;55.848;-3.572;2023-07-31T00:21:29;97964.26;;;20.76;67.14
54554;BME280;40450;55.848;-3.572;2023-07-31T00:23:59;97951.75;;;20.91;66.89
54554;BME280;40450;55.848;-3.572;2023-07-31T00:26:30;97949.67;;;21.02;65.78
54554;BME280;40450;55.848;-3.572;2023-07-31T00:29:00;97945.09;;;20.69;65.17
54554;BME280;40450;55.848;-3.572;2023-07-31T00:31:30;97939.30;;;20.53;65.57
54554;BME280;40450;55.848;-3.572;2023-07-31T00:34:00;97928.51;;;20.87;65.20
54554;BME280;40450;55.848;-3.572;2023-07-31T00:36:31;97928.56;;;20.90;64.92
54554;BME280;40450;55.848;-3.572;2023-07-31T00:39:01;97928.82;;;20.71;64.58
54554;BME280;40450;55.848;-3.572;2023-07-31T00:41:31;97927.49;;;20.39;65.25
54554;BME280;40450;55.848;-3.572;2023-07-31T00:44:02;97927.98;;;20.67;65.71
54554;BME280;40450;55.848;-3.572;2023-07-31T00:46:32;97928.28;;;20.93;65.26
54554;BME280;40450;55.848;-3.572;2023-07-31T00:49:03;97923.83;;;19.97;66.11
54554;BME280;40450;55.848;-3.572;2023-07-31T00:51:33;97917.60;;;20.71;64.80
54554;BME280;40450;55.848;-3.572;2023-07-31T00:54:03;97909.57;;;21.14;64.37
54554;BME280;40450;55.848;-3.572;2023-07-31T00:56:33;97906.90;;;21.27;63.35
54554;BME280;40450;55.848;-3.572;2023-07-31T00:59:03;97906.92;;;20.86;64.01
54554;BME280;40450;55.848;-3.572;2023-07-31T01:01:34;97908.39;;;20.36;65.07
54554;BME280;40450;55.848;-3.572;2023-07-31T01:04:04;97906.07;;;18.89;70.27
54554;BME280;40450;55.848;-3.572;2023-07-31T01:06:40;97906.22;;;19.96;67.20
54554;BME280;40450;55.848;-3.572;2023-07-31T01:09:11;97905.39;;;17.58;76.36
54554;BME280;40450;55.848;-3.572;2023-07-31T01:11:41;97895.32;;;19.14;71.00
54554;BME280;40450;55.848;-3.572;2023-07-31T01:14:06;97896.32;;;17.07;77.66
54554;BME280;40450;55.848;-3.572;2023-07-31T01:16:37;97894.70;;;17.32;77.44
54554;BME280;40450;55.848;-3.572;2023-07-31T01:19:09;97890.49;;;18.73;73.55
54554;BME280;40450;55.848;-3.572;2023-07-31T01:21:53;97888.99;;;18.85;72.82
54554;BME280;40450;55.848;-3.572;2023-07-31T01:24:20;97888.45;;;19.08;72.30
54554;BME280;40450;55.848;-3.572;2023-07-31T01:26:39;97894.09;;;16.76;79.45
54554;BME280;40450;55.848;-3.572;2023-07-31T01:29:15;97880.47;;;18.58;74.94
54554;BME280;40450;55.848;-3.572;2023-07-31T01:31:40;97879.52;;;18.01;75.40
54554;BME280;40450;55.848;-3.572;2023-07-31T01:34:10;97873.97;;;19.08;73.04
54554;BME280;40450;55.848;-3.572;2023-07-31T01:36:40;97875.04;;;18.31;75.01
54554;BME280;40450;55.848;-3.572;2023-07-31T01:39:10;97878.40;;;16.76;79.92
54554;BME280;40450;55.848;-3.572;2023-07-31T01:41:40;97873.27;;;17.60;77.20
54554;BME280;40450;55.848;-3.572;2023-07-31T01:44:11;97875.54;;;18.23;74.91
54554;BME280;40450;55.848;-3.572;2023-07-31T01:46:41;97872.68;;;17.09;78.24
54554;BME280;40450;55.848;-3.572;2023-07-31T01:49:12;97865.40;;;18.09;76.46
54554;BME280;40450;55.848;-3.572;2023-07-31T01:51:42;97868.35;;;16.25;82.20
54554;BME280;40450;55.848;-3.572;2023-07-31T01:54:13;97858.09;;;18.14;77.15
54554;BME280;40450;55.848;-3.572;2023-07-31T01:56:43;97863.36;;;18.16;75.86
54554;BME280;40450;55.848;-3.572;2023-07-31T01:59:13;97864.32;;;19.26;73.96
54554;BME280;40450;55.848;-3.572;2023-07-31T02:01:45;97862.94;;;17.99;75.37
54554;BME280;40450;55.848;-3.572;2023-07-31T02:04:16;97851.85;;;19.17;72.51
54554;BME280;40450;55.848;-3.572;2023-07-31T02:06:46;97852.40;;;20.00;71.89
54554;BME280;40450;55.848;-3.572;2023-07-31T02:09:15;97851.67;;;19.68;71.21
54554;BME280;40450;55.848;-3.572;2023-07-31T02:11:46;97851.73;;;18.39;73.57
54554;BME280;40450;55.848;-3.572;2023-07-31T02:14:20;97852.51;;;17.50;76.64
54554;BME280;40450;55.848;-3.572;2023-07-31T02:16:46;97852.42;;;17.89;76.64
54554;BME280;40450;55.848;-3.572;2023-07-31T02:19:17;97845.48;;;18.99;74.04
54554;BME280;40450;55.848;-3.572;2023-07-31T02:21:47;97844.97;;;17.64;76.24
54554;BME280;40450;55.848;-3.572;2023-07-31T02:24:17;97847.27;;;15.78;83.65
54554;BME280;40450;55.848;-3.572;2023-07-31T02:26:54;97845.90;;;15.85;83.56
54554;BME280;40450;55.848;-3.572;2023-07-31T02:29:23;97841.98;;;15.29;85.83
54554;BME280;40450;55.848;-3.572;2023-07-31T02:31:49;97834.64;;;17.31;81.39
54554;BME280;40450;55.848;-3.572;2023-07-31T02:34:18;97836.25;;;18.45;75.76
54554;BME280;40450;55.848;-3.572;2023-07-31T02:36:48;97834.31;;;16.87;79.95
54554;BME280;40450;55.848;-3.572;2023-07-31T02:39:19;97827.39;;;18.81;75.33
54554;BME280;40450;55.848;-3.572;2023-07-31T02:41:50;97827.09;;;19.30;73.92
54554;BME280;40450;55.848;-3.572;2023-07-31T02:44:20;97826.96;;;18.04;75.47
54554;BME280;40450;55.848;-3.572;2023-07-31T02:46:51;97820.16;;;18.75;73.59
54554;BME280;40450;55.848;-3.572;2023-07-31T02:49:24;97817.69;;;18.79;73.56
54554;BME280;40450;55.848;-3.572;2023-07-31T02:51:51;97818.35;;;19.23;72.61
54554;BME280;40450;55.848;-3.572;2023-07-31T02:54:21;97813.99;;;18.65;72.86
54554;BME280;40450;55.848;-3.572;2023-07-31T02:56:52;97816.62;;;16.91;78.82
54554;BME280;40450;55.848;-3.572;2023-07-31T02:59:22;97815.68;;;18.58;74.34
54554;BME280;40450;55.848;-3.572;2023-07-31T03:01:53;97813.47;;;19.10;73.48
54554;BME280;40450;55.848;-3.572;2023-07-31T03:04:23;97814.84;;;17.45;76.19
54554;BME280;40450;55.848;-3.572;2023-07-31T03:06:54;97813.79;;;17.70;76.30
54554;BME280;40450;55.848;-3.572;2023-07-31T03:09:24;97807.91;;;16.92;79.18
54554;BME280;40450;55.848;-3.572;2023-07-31T03:11:54;97814.36;;;15.27;85.26
54554;BME280;40450;55.848;-3.572;2023-07-31T03:14:26;97805.40;;;17.42;79.04
54554;BME280;40450;55.848;-3.572;2023-07-31T03:16:55;97800.72;;;16.93;80.07
54554;BME280;40450;55.848;-3.572;2023-07-31T03:19:25;97789.29;;;18.53;77.49
54554;BME280;40450;55.848;-3.572;2023-07-31T03:21:55;97784.49;;;19.12;74.57
54554;BME280;40450;55.848;-3.572;2023-07-31T03:24:27;97782.84;;;18.57;74.30
54554;BME280;40450;55.848;-3.572;2023-07-31T03:26:57;97778.48;;;18.63;74.27
54554;BME280;40450;55.848;-3.572;2023-07-31T03:29:27;97781.48;;;19.39;72.32
54554;BME280;40450;55.848;-3.572;2023-07-31T03:31:58;97787.75;;;19.20;71.53
54554;BME280;40450;55.848;-3.572;2023-07-31T03:34:28;97784.03;;;19.04;71.87
54554;BME280;40450;55.848;-3.572;2023-07-31T03:37:06;97781.71;;;19.53;71.66
54554;BME280;40450;55.848;-3.572;2023-07-31T03:39:30;97776.24;;;19.80;69.91
54554;BME280;40450;55.848;-3.572;2023-07-31T03:42:00;97775.13;;;17.58;75.97
54554;BME280;40450;55.848;-3.572;2023-07-31T03:44:35;97775.15;;;17.63;75.48
54554;BME280;40450;55.848;-3.572;2023-07-31T03:47:01;97774.86;;;16.43;80.58
54554;BME280;40450;55.848;-3.572;2023-07-31T03:49:32;97781.60;;;15.30;84.99
54554;BME280;40450;55.848;-3.572;2023-07-31T03:52:01;97770.48;;;16.20;83.12
54554;BME280;40450;55.848;-3.572;2023-07-31T03:54:31;97765.19;;;16.53;81.34
54554;BME280;40450;55.848;-3.572;2023-07-31T03:57:02;97761.62;;;17.46;79.05
54554;BME280;40450;55.848;-3.572;2023-07-31T03:59:33;97759.12;;;18.06;77.19
54554;BME280;40450;55.848;-3.572;2023-07-31T04:02:03;97763.80;;;17.21;78.18
54554;BME280;40450;55.848;-3.572;2023-07-31T04:04:32;97761.95;;;17.89;77.58
54554;BME280;40450;55.848;-3.572;2023-07-31T04:07:03;97759.39;;;18.52;76.65
54554;BME280;40450;55.848;-3.572;2023-07-31T04:09:34;97757.56;;;18.25;75.15
54554;BME280;40450;55.848;-3.572;2023-07-31T04:12:05;97753.20;;;18.97;73.37
54554;BME280;40450;55.848;-3.572;2023-07-31T04:14:34;97755.56;;;19.24;73.82
54554;BME280;40450;55.848;-3.572;2023-07-31T04:17:05;97756.09;;;19.67;71.26
54554;BME280;40450;55.848;-3.572;2023-07-31T04:19:34;97761.41;;;19.22;72.02
54554;BME280;40450;55.848;-3.572;2023-07-31T04:22:05;97756.87;;;19.78;71.59
54554;BME280;40450;55.848;-3.572;2023-07-31T04:24:37;97748.79;;;20.17;69.52
54554;BME280;40450;55.848;-3.572;2023-07-31T04:27:05;97748.99;;;19.42;71.14
54554;BME280;40450;55.848;-3.572;2023-07-31T04:29:42;97743.80;;;19.40;70.68
54554;BME280;40450;55.848;-3.572;2023-07-31T04:32:06;97736.50;;;19.84;70.63
54554;BME280;40450;55.848;-3.572;2023-07-31T04:37:07;97730.65;;;20.35;67.91
54554;BME280;40450;55.848;-3.572;2023-07-31T04:39:42;97731.61;;;20.28;67.20
54554;BME280;40450;55.848;-3.572;2023-07-31T04:42:08;97733.60;;;20.54;67.54
54554;BME280;40450;55.848;-3.572;2023-07-31T04:44:37;97729.05;;;20.60;67.12
54554;BME280;40450;55.848;-3.572;2023-07-31T04:47:08;97723.11;;;20.60;67.07
54554;BME280;40450;55.848;-3.572;2023-07-31T04:49:39;97722.67;;;20.71;66.78
54554;BME280;40450;55.848;-3.572;2023-07-31T04:52:10;97720.38;;;20.81;66.50
54554;BME280;40450;55.848;-3.572;2023-07-31T04:54:39;97720.93;;;20.78;65.55
54554;BME280;40450;55.848;-3.572;2023-07-31T04:57:10;97721.60;;;20.71;66.43
54554;BME280;40450;55.848;-3.572;2023-07-31T04:59:43;97725.66;;;18.31;72.12
54554;BME280;40450;55.848;-3.572;2023-07-31T05:02:13;97727.67;;;19.82;69.53
54554;BME280;40450;55.848;-3.572;2023-07-31T05:04:41;97725.99;;;20.27;68.16
54554;BME280;40450;55.848;-3.572;2023-07-31T05:07:11;97732.40;;;17.93;74.65
54554;BME280;40450;55.848;-3.572;2023-07-31T05:09:42;97734.92;;;16.86;79.36
54554;BME280;40450;55.848;-3.572;2023-07-31T05:12:12;97734.25;;;16.92;79.26
54554;BME280;40450;55.848;-3.572;2023-07-31T05:14:42;97734.86;;;16.54;81.89
54554;BME280;40450;55.848;-3.572;2023-07-31T05:17:13;97726.31;;;18.22;76.87
54554;BME280;40450;55.848;-3.572;2023-07-31T05:19:43;97726.52;;;17.07;80.47
54554;BME280;40450;55.848;-3.572;2023-07-31T05:22:13;97725.64;;;16.14;84.04
54554;BME280;40450;55.848;-3.572;2023-07-31T05:24:43;97729.01;;;15.66;86.18
54554;BME280;40450;55.848;-3.572;2023-07-31T05:27:12;97723.04;;;15.91;85.49
54554;BME280;40450;55.848;-3.572;2023-07-31T05:29:44;97718.29;;;16.60;83.69
54554;BME280;40450;55.848;-3.572;2023-07-31T05:32:14;97721.74;;;15.54;86.45
54554;BME280;40450;55.848;-3.572;2023-07-31T05:34:50;97723.78;;;15.43;87.98
54554;BME280;40450;55.848;-3.572;2023-07-31T05:37:14;97724.56;;;15.51;87.15
54554;BME280;40450;55.848;-3.572;2023-07-31T05:39:44;97728.28;;;14.65;90.72
54554;BME280;40450;55.848;-3.572;2023-07-31T05:42:14;97719.98;;;16.28;86.14
54554;BME280;40450;55.848;-3.572;2023-07-31T05:44:45;97724.02;;;14.91;90.21
54554;BME280;40450;55.848;-3.572;2023-07-31T05:47:15;97713.20;;;16.82;84.64
54554;BME280;40450;55.848;-3.572;2023-07-31T05:49:46;97711.39;;;15.88;87.13
54554;BME280;40450;55.848;-3.572;2023-07-31T05:52:16;97709.81;;;15.56;87.96
54554;BME280;40450;55.848;-3.572;2023-07-31T05:54:46;97713.38;;;15.29;89.13
54554;BME280;40450;55.848;-3.572;2023-07-31T05:57:17;97706.80;;;14.67;90.68
54554;BME280;40450;55.848;-3.572;2023-07-31T05:59:46;97700.30;;;14.85;90.71
54554;BME280;40450;55.848;-3.572;2023-07-31T06:02:17;97692.01;;;16.24;87.24
54554;BME280;40450;55.848;-3.572;2023-07-31T06:04:48;97700.15;;;13.42;95.47
54554;BME280;40450;55.848;-3.572;2023-07-31T06:07:18;97696.58;;;15.18;90.42
54554;BME280;40450;55.848;-3.572;2023-07-31T06:09:49;97691.97;;;15.49;89.80
54554;BME280;40450;55.848;-3.572;2023-07-31T06:12:19;97694.48;;;14.16;93.35
54554;BME280;40450;55.848;-3.572;2023-07-31T06:14:49;97687.55;;;15.87;89.72
54554;BME280;40450;55.848;-3.572;2023-07-31T06:17:19;97686.12;;;17.02;86.42
54554;BME280;40450;55.848;-3.572;2023-07-31T06:19:49;97688.58;;;16.43;85.70
54554;BME280;40450;55.848;-3.572;2023-07-31T06:22:20;97681.69;;;17.47;83.24
54554;BME280;40450;55.848;-3.572;2023-07-31T06:24:50;97682.34;;;16.48;85.01
54554;BME280;40450;55.848;-3.572;2023-07-31T06:27:20;97679.15;;;15.88;86.74
54554;BME280;40450;55.848;-3.572;2023-07-31T06:29:52;97674.17;;;17.53;84.65
54554;BME280;40450;55.848;-3.572;2023-07-31T06:32:26;97671.01;;;17.59;83.75
54554;BME280;40450;55.848;-3.572;2023-07-31T06:34:58;97667.48;;;17.77;82.50
54554;BME280;40450;55.848;-3.572;2023-07-31T06:39:57;97667.86;;;16.66;86.24
54554;BME280;40450;55.848;-3.572;2023-07-31T06:42:22;97674.46;;;14.95;91.74
54554;BME280;40450;55.848;-3.572;2023-07-31T06:44:54;97664.70;;;16.18;87.39
54554;BME280;40450;55.848;-3.572;2023-07-31T06:47:22;97665.26;;;13.89;94.64
54554;BME280;40450;55.848;-3.572;2023-07-31T06:49:56;97661.26;;;14.26;94.30
54554;BME280;40450;55.848;-3.572;2023-07-31T06:52:23;97655.01;;;15.93;91.21
54554;BME280;40450;55.848;-3.572;2023-07-31T06:55:02;97653.30;;;16.61;88.57
54554;BME280;40450;55.848;-3.572;2023-07-31T06:57:24;97648.02;;;17.33;86.97
54554;BME280;40450;55.848;-3.572;2023-07-31T06:59:54;97652.58;;;14.43;94.15
54554;BME280;40450;55.848;-3.572;2023-07-31T07:02:24;97647.12;;;15.87;90.23
54554;BME280;40450;55.848;-3.572;2023-07-31T07:04:55;97644.85;;;15.38;91.67
54554;BME280;40450;55.848;-3.572;2023-07-31T07:07:26;97645.55;;;14.38;94.22
54554;BME280;40450;55.848;-3.572;2023-07-31T07:09:55;97645.82;;;13.36;97.30
54554;BME280;40450;55.848;-3.572;2023-07-31T07:12:26;97645.63;;;14.39;95.71
54554;BME280;40450;55.848;-3.572;2023-07-31T07:14:57;97641.78;;;14.22;95.34
54554;BME280;40450;55.848;-3.572;2023-07-31T07:17:28;97636.32;;;15.03;93.56
54554;BME280;40450;55.848;-3.572;2023-07-31T07:19:57;97635.56;;;14.57;94.83
54554;BME280;40450;55.848;-3.572;2023-07-31T07:22:27;97628.66;;;15.34;92.02
54554;BME280;40450;55.848;-3.572;2023-07-31T07:24:57;97632.25;;;14.49;95.88
54554;BME280;40450;55.848;-3.572;2023-07-31T07:27:28;97627.72;;;16.65;90.67
54554;BME280;40450;55.848;-3.572;2023-07-31T07:29:59;97628.49;;;15.73;91.87
54554;BME280;40450;55.848;-3.572;2023-07-31T07:32:28;97630.68;;;15.92;91.91
54554;BME280;40450;55.848;-3.572;2023-07-31T07:34:59;97631.46;;;15.14;93.24
54554;BME280;40450;55.848;-3.572;2023-07-31T07:37:29;97623.42;;;17.11;90.58
54554;BME280;40450;55.848;-3.572;2023-07-31T07:39:59;97621.22;;;18.02;86.38
54554;BME280;40450;55.848;-3.572;2023-07-31T07:42:30;97620.59;;;17.19;86.63
54554;BME280;40450;55.848;-3.572;2023-07-31T07:45:00;97620.41;;;17.47;87.30
54554;BME280;40450;55.848;-3.572;2023-07-31T07:47:30;97618.08;;;17.58;86.00
54554;BME280;40450;55.848;-3.572;2023-07-31T07:50:00;97616.92;;;18.68;84.87
54554;BME280;40450;55.848;-3.572;2023-07-31T07:52:31;97608.50;;;19.54;82.48
54554;BME280;40450;55.848;-3.572;2023-07-31T07:55:01;97611.48;;;18.34;84.77
54554;BME280;40450;55.848;-3.572;2023-07-31T07:57:31;97608.99;;;19.24;82.49
54554;BME280;40450;55.848;-3.572;2023-07-31T08:00:02;97601.45;;;19.40;79.31
54554;BME280;40450;55.848;-3.572;2023-07-31T08:02:33;97597.85;;;19.60;80.43
54554;BME280;40450;55.848;-3.572;2023-07-31T08:05:02;97594.28;;;19.97;79.37
54554;BME280;40450;55.848;-3.572;2023-07-31T08:07:33;97593.47;;;19.62;79.78
54554;BME280;40450;55.848;-3.572;2023-07-31T08:10:03;97591.40;;;19.70;79.23
54554;BME280;40450;55.848;-3.572;2023-07-31T08:12:33;97594.72;;;20.53;75.93
54554;BME280;40450;55.848;-3.572;2023-07-31T08:15:05;97594.62;;;19.14;80.90
54554;BME280;40450;55.848;-3.572;2023-07-31T08:17:34;97593.94;;;20.40;78.90
54554;BME280;40450;55.848;-3.572;2023-07-31T08:20:06;97589.18;;;19.97;77.92
54554;BME280;40450;55.848;-3.572;2023-07-31T08:22:34;97591.31;;;20.40;77.77
54554;BME280;40450;55.848;-3.572;2023-07-31T08:25:06;97590.18;;;20.43;76.27
54554;BME280;40450;55.848;-3.572;2023-07-31T08:27:35;97592.64;;;18.81;79.86
54554;BME280;40450;55.848;-3.572;2023-07-31T08:30:06;97589.81;;;18.78;80.56
54554;BME280;40450;55.848;-3.572;2023-07-31T08:32:36;97584.05;;;19.27;80.14
54554;BME280;40450;55.848;-3.572;2023-07-31T08:35:06;97583.04;;;19.91;77.23
54554;BME280;40450;55.848;-3.572;2023-07-31T08:37:38;97586.39;;;19.92;77.98
54554;BME280;40450;55.848;-3.572;2023-07-31T08:40:08;97585.93;;;20.30;76.66
54554;BME280;40450;55.848;-3.572;2023-07-31T08:42:43;97584.45;;;20.13;77.62
54554;BME280;40450;55.848;-3.572;2023-07-31T08:45:08;97582.63;;;19.93;78.62
54554;BME280;40450;55.848;-3.572;2023-07-31T08:47:38;97578.63;;;19.53;79.71
54554;BME280;40450;55.848;-3.572;2023-07-31T08:50:09;97573.81;;;19.90;79.64
54554;BME280;40450;55.848;-3.572;2023-07-31T08:52:38;97572.86;;;20.45;78.79
54554;BME280;40450;55.848;-3.572;2023-07-31T08:55:09;97568.75;;;20.52;78.57
54554;BME280;40450;55.848;-3.572;2023-07-31T09:00:11;97558.59;;;21.13;76.08
54554;BME280;40450;55.848;-3.572;2023-07-31T09:02:45;97559.10;;;20.25;79.33
54554;BME280;40450;55.848;-3.572;2023-07-31T09:05:11;97556.96;;;19.72;80.81
54554;BME280;40450;55.848;-3.572;2023-07-31T09:07:40;97557.34;;;19.14;83.51
54554;BME280;40450;55.848;-3.572;2023-07-31T09:10:17;97550.90;;;19.11;83.80
54554;BME280;40450;55.848;-3.572;2023-07-31T09:12:41;97552.46;;;19.03;85.29
54554;BME280;40450;55.848;-3.572;2023-07-31T09:15:29;97546.34;;;18.49;86.84
54554;BME280;40450;55.848;-3.572;2023-07-31T09:17:41;97547.19;;;17.84;90.10
54554;BME280;40450;55.848;-3.572;2023-07-31T09:20:17;97544.23;;;17.83;89.67
54554;BME280;40450;55.848;-3.572;2023-07-31T09:22:43;97539.57;;;19.19;87.89
54554;BME280;40450;55.848;-3.572;2023-07-31T09:25:16;97536.96;;;19.66;86.71
54554;BME280;40450;55.848;-3.572;2023-07-31T09:27:48;97534.93;;;19.81;86.04
54554;BME280;40450;55.848;-3.572;2023-07-31T09:30:13;97531.19;;;19.87;84.78
54554;BME280;40450;55.848;-3.572;2023-07-31T09:32:44;97526.31;;;19.02;86.70
54554;BME280;40450;55.848;-3.572;2023-07-31T09:35:19;97530.61;;;18.90;87.62
54554;BME280;40450;55.848;-3.572;2023-07-31T09:37:44;97533.07;;;18.78;87.08
54554;BME280;40450;55.848;-3.572;2023-07-31T09:42:45;97533.75;;;18.24;87.87
54554;BME280;40450;55.848;-3.572;2023-07-31T09:45:15;97525.11;;;19.24;85.56
54554;BME280;40450;55.848;-3.572;2023-07-31T09:47:47;97525.27;;;20.04;84.54
54554;BME280;40450;55.848;-3.572;2023-07-31T09:50:15;97522.62;;;20.43;81.94
54554;BME280;40450;55.848;-3.572;2023-07-31T09:52:45;97518.00;;;20.86;80.32
54554;BME280;40450;55.848;-3.572;2023-07-31T09:55:16;97516.56;;;20.51;81.53
54554;BME280;40450;55.848;-3.572;2023-07-31T09:57:47;97516.94;;;20.09;80.98
54554;BME280;40450;55.848;-3.572;2023-07-31T10:00:18;97512.12;;;20.12;82.13
54554;BME280;40450;55.848;-3.572;2023-07-31T10:02:47;97510.18;;;20.33;81.04
54554;BME280;40450;55.848;-3.572;2023-07-31T10:05:17;97510.73;;;19.56;83.08
54554;BME280;40450;55.848;-3.572;2023-07-31T10:07:53;97511.63;;;19.84;81.92
54554;BME280;40450;55.848;-3.572;2023-07-31T10:10:19;97510.41;;;20.21;81.83
54554;BME280;40450;55.848;-3.572;2023-07-31T10:12:49;97512.92;;;19.49;82.93
54554;BME280;40450;55.848;-3.572;2023-07-31T10:15:19;97509.53;;;20.23;81.78
54554;BME280;40450;55.848;-3.572;2023-07-31T10:17:49;97516.81;;;18.59;85.87
54554;BME280;40450;55.848;-3.572;2023-07-31T10:20:19;97513.71;;;18.99;83.55
54554;BME280;40450;55.848;-3.572;2023-07-31T10:22:49;97514.11;;;20.02;80.16
54554;BME280;40450;55.848;-3.572;2023-07-31T10:25:20;97515.61;;;20.29;79.30
54554;BME280;40450;55.848;-3.572;2023-07-31T10:27:50;97512.56;;;20.68;78.86
54554;BME280;40450;55.848;-3.572;2023-07-31T10:30:22;97516.94;;;19.60;80.49
54554;BME280;40450;55.848;-3.572;2023-07-31T10:32:51;97512.36;;;19.75;80.85
54554;BME280;40450;55.848;-3.572;2023-07-31T10:35:21;97510.70;;;20.32;79.51
54554;BME280;40450;55.848;-3.572;2023-07-31T10:37:52;97512.51;;;20.22;79.06
54554;BME280;40450;55.848;-3.572;2023-07-31T10:40:25;97505.39;;;20.77;78.97
54554;BME280;40450;55.848;-3.572;2023-07-31T10:42:52;97507.63;;;21.37;77.28
54554;BME280;40450;55.848;-3.572;2023-07-31T10:45:30;97507.95;;;21.44;76.08
54554;BME280;40450;55.848;-3.572;2023-07-31T10:47:58;97507.41;;;20.51;78.03
54554;BME280;40450;55.848;-3.572;2023-07-31T10:50:23;97508.94;;;21.17;76.24
54554;BME280;40450;55.848;-3.572;2023-07-31T10:52:56;97505.80;;;21.28;74.31
54554;BME280;40450;55.848;-3.572;2023-07-31T10:55:30;97506.32;;;20.97;75.94
54554;BME280;40450;55.848;-3.572;2023-07-31T10:57:53;97505.98;;;19.68;79.78
54554;BME280;40450;55.848;-3.572;2023-07-31T11:00:26;97503.79;;;20.50;77.99
54554;BME280;40450;55.848;-3.572;2023-07-31T11:02:59;97501.61;;;20.45;77.80
54554;BME280;40450;55.848;-3.572;2023-07-31T11:07:56;97493.60;;;20.64;78.41
54554;BME280;40450;55.848;-3.572;2023-07-31T11:10:25;97497.80;;;20.22;79.47
54554;BME280;40450;55.848;-3.572;2023-07-31T11:12:54;97491.65;;;20.76;77.26
54554;BME280;40450;55.848;-3.572;2023-07-31T11:15:27;97493.46;;;20.12;79.81
54554;BME280;40450;55.848;-3.572;2023-07-31T11:17:56;97487.60;;;19.64;79.93
54554;BME280;40450;55.848;-3.572;2023-07-31T11:20:26;97488.28;;;19.38;81.37
54554;BME280;40450;55.848;-3.572;2023-07-31T11:22:59;97486.42;;;20.58;78.85
54554;BME280;40450;55.848;-3.572;2023-07-31T11:25:26;97482.13;;;19.74;80.34
54554;BME280;40450;55.848;-3.572;2023-07-31T11:28:04;97479.42;;;21.08;77.80
54554;BME280;40450;55.848;-3.572;2023-07-31T11:30:26;97473.20;;;20.51;79.23
54554;BME280;40450;55.848;-3.572;2023-07-31T11:32:57;97477.12;;;19.14;81.51
54554;BME280;40450;55.848;-3.572;2023-07-31T11:35:27;97469.87;;;20.63;78.73
54554;BME280;40450;55.848;-3.572;2023-07-31T11:37:57;97468.87;;;20.58;78.41
54554;BME280;40450;55.848;-3.572;2023-07-31T11:40:28;97473.13;;;20.54;78.23
54554;BME280;40450;55.848;-3.572;2023-07-31T11:42:58;97472.21;;;20.46;76.39
54554;BME280;40450;55.848;-3.572;2023-07-31T11:45:28;97474.27;;;20.53;77.18
54554;BME280;40450;55.848;-3.572;2023-07-31T11:48:04;97472.91;;;20.33;77.51
54554;BME280;40450;55.848;-3.572;2023-07-31T11:50:29;97471.45;;;20.72;76.76
54554;BME280;40450;55.848;-3.572;2023-07-31T11:53:01;97468.96;;;20.82;75.54
54554;BME280;40450;55.848;-3.572;2023-07-31T11:55:29;97471.40;;;21.39;73.51
54554;BME280;40450;55.848;-3.572;2023-07-31T11:57:59;97467.62;;;21.69;73.96
54554;BME280;40450;55.848;-3.572;2023-07-31T12:00:30;97462.67;;;21.04;74.51
54554;BME280;40450;55.848;-3.572;2023-07-31T12:03:00;97460.73;;;21.08;73.80
54554;BME280;40450;55.848;-3.572;2023-07-31T12:05:30;97461.09;;;20.53;74.77
54554;BME280;40450;55.848;-3.572;2023-07-31T12:08:00;97460.98;;;21.18;74.64
54554;BME280;40450;55.848;-3.572;2023-07-31T12:10:32;97463.90;;;21.05;74.87
54554;BME280;40450;55.848;-3.572;2023-07-31T12:13:03;97463.21;;;21.16;74.01
54554;BME280;40450;55.848;-3.572;2023-07-31T12:15:37;97462.86;;;20.68;75.25
54554;BME280;40450;55.848;-3.572;2023-07-31T12:18:04;97463.97;;;20.39;76.47
54554;BME280;40450;55.848;-3.572;2023-07-31T12:20:32;97461.54;;;20.00;77.88
54554;BME280;40450;55.848;-3.572;2023-07-31T12:23:02;97466.40;;;20.64;76.81
54554;BME280;40450;55.848;-3.572;2023-07-31T12:25:33;97470.88;;;21.40;75.28
54554;BME280;40450;55.848;-3.572;2023-07-31T12:28:06;97468.41;;;20.27;77.93
54554;BME280;40450;55.848;-3.572;2023-07-31T12:30:34;97469.67;;;20.23;78.92
54554;BME280;40450;55.848;-3.572;2023-07-31T12:33:03;97467.85;;;19.69;80.15
54554;BME280;40450;55.848;-3.572;2023-07-31T12:35:38;97468.95;;;19.92;79.43
54554;BME280;40450;55.848;-3.572;2023-07-31T12:38:03;97466.22;;;19.92;79.64
54554;BME280;40450;55.848;-3.572;2023-07-31T12:40:37;97465.83;;;19.50;80.02
54554;BME280;40450;55.848;-3.572;2023-07-31T12:43:04;97463.97;;;19.31;80.83
54554;BME280;40450;55.848;-3.572;2023-07-31T12:45:35;97472.43;;;19.96;78.63
54554;BME280;40450;55.848;-3.572;2023-07-31T12:48:05;97462.77;;;20.27;77.78
54554;BME280;40450;55.848;-3.572;2023-07-31T12:50:35;97466.80;;;19.90;80.09
54554;BME280;40450;55.848;-3.572;2023-07-31T12:53:06;97464.67;;;20.21;78.94
54554;BME280;40450;55.848;-3.572;2023-07-31T12:55:35;97462.10;;;20.55;78.49
54554;BME280;40450;55.848;-3.572;2023-07-31T12:58:06;97461.19;;;19.69;80.16
54554;BME280;40450;55.848;-3.572;2023-07-31T13:00:36;97462.85;;;20.37;77.61
54554;BME280;40450;55.848;-3.572;2023-07-31T13:03:06;97460.53;;;19.96;78.50
54554;BME280;40450;55.848;-3.572;2023-07-31T13:05:37;97459.48;;;20.66;77.13
54554;BME280;40450;55.848;-3.572;2023-07-31T13:08:07;97464.46;;;20.25;76.93
54554;BME280;40450;55.848;-3.572;2023-07-31T13:10:43;97459.67;;;19.66;80.34
54554;BME280;40450;55.848;-3.572;2023-07-31T13:13:09;97456.14;;;20.36;78.09
54554;BME280;40450;55.848;-3.572;2023-07-31T13:15:38;97456.34;;;20.48;78.45
54554;BME280;40450;55.848;-3.572;2023-07-31T13:18:08;97457.32;;;20.25;78.33